Time;durP1;ratioP1;P1;durP2;ratioP2;P2;SDS_P1;SDS_P2;PMS_P1;PMS_P2;Temp;Humidity;BMP_temperature;BMP_pressure;BME280_temperature;BME280_humidity;BME280_pressure;Samples;Min_cycle;Max_cycle;Signal;HPM_P1;HPM_P2
2021/07/07 00:00:16;;;;;;;9.85;8.43;;;;;;;20.27;72.08;96769.16;5005134;28;20029;-61
2021/07/07 00:02:42;;;;;;;13.50;8.05;;;;;;;20.52;70.80;96765.69;5005000;28;20080;-61
2021/07/07 00:05:09;;;;;;;10.82;7.20;;;;;;;17.65;69.99;96323.00;5006783;28;20076;-61
2021/07/07 00:07:35;;;;;;;10.48;6.85;;;;;;;20.59;69.02;96757.06;5005065;28;20037;-61
2021/07/07 00:10:02;;;;;;;15.82;8.20;;;;;;;20.71;69.46;96761.97;5005333;28;20428;-60
2021/07/07 00:12:27;;;;;;;8.93;7.65;;;;;;;20.63;69.42;96763.38;5004748;28;20045;-62
2021/07/07 00:14:53;;;;;;;8.48;7.68;;;;;;;20.62;69.79;96747.75;5006542;28;20042;-61
2021/07/07 00:17:19;;;;;;;9.07;7.13;;;;;;;20.43;69.03;96720.50;5004466;28;20033;-61
2021/07/07 00:19:45;;;;;;;8.50;7.65;;;;;;;20.13;70.95;96729.31;5004870;28;20029;-62
2021/07/07 00:22:13;;;;;;;7.90;7.10;;;;;;;20.46;70.39;96764.66;5004614;28;20052;-61
2021/07/07 00:24:39;;;;;;;9.75;7.60;;;;;;;20.49;69.60;96758.13;5007015;28;20122;-61
2021/07/07 00:27:04;;;;;;;8.90;7.45;;;;;;;20.53;69.35;96756.03;5006516;28;20030;-61
2021/07/07 00:29:30;;;;;;;8.63;7.85;;;;;;;19.94;71.79;96722.56;5004897;28;20084;-61
2021/07/07 00:31:55;;;;;;;8.52;7.63;;;;;;;20.43;70.94;96782.41;5004149;28;20084;-62
2021/07/07 00:34:21;;;;;;;10.55;7.80;;;;;;;20.35;71.61;96769.75;5004378;28;20412;-62
2021/07/07 00:36:46;;;;;;;8.02;7.18;;;;;;;20.12;72.64;96772.75;5004369;28;20128;-61
2021/07/07 00:39:12;;;;;;;11.45;7.50;;;;;;;20.29;72.54;96779.97;5006138;28;20041;-61
2021/07/07 00:41:37;;;;;;;8.15;7.05;;;;;;;20.42;71.53;96780.84;5004730;28;20076;-62
2021/07/07 00:44:03;;;;;;;16.58;8.82;;;;;;;20.34;72.52;96790.69;5004343;28;20061;-61
2021/07/07 00:46:28;;;;;;;12.60;8.32;;;;;;;20.41;71.82;96779.25;5004037;28;20034;-61
2021/07/07 00:48:54;;;;;;;9.13;8.02;;;;;;;20.24;70.96;96735.50;5005474;28;20053;-61
2021/07/07 00:51:19;;;;;;;12.15;7.28;;;;;;;20.71;70.85;96798.56;5003874;28;20026;-63
2021/07/07 00:53:49;;;;;;;14.55;9.65;;;;;;;19.78;75.00;96780.78;5005793;28;20768;-62
2021/07/07 00:56:17;;;;;;;9.75;7.82;;;;;;;20.24;73.34;96803.81;5004007;28;20510;-62
2021/07/07 00:58:46;;;;;;;15.30;8.50;;;;;;;19.99;73.80;96792.34;5006064;28;20058;-61
2021/07/07 01:01:12;;;;;;;10.60;8.35;;;;;;;20.23;73.73;96795.81;5003908;28;20209;-61
2021/07/07 01:03:38;;;;;;;9.98;7.32;;;;;;;19.86;72.40;96725.97;5003279;28;20034;-62
2021/07/07 01:06:03;;;;;;;9.93;7.50;;;;;;;20.09;71.18;96773.63;5003325;28;20083;-61
2021/07/07 01:08:29;;;;;;;11.02;7.97;;;;;;;20.36;71.04;96802.31;5003242;28;20037;-61
2021/07/07 01:10:56;;;;;;;8.25;7.50;;;;;;;20.36;71.62;96805.13;5003696;28;20420;-61
2021/07/07 01:13:21;;;;;;;9.88;7.70;;;;;;;20.21;71.04;96770.94;5004938;28;20037;-61
2021/07/07 01:15:47;;;;;;;9.15;7.63;;;;;;;20.24;71.28;96766.44;5003913;28;20034;-62
2021/07/07 01:18:13;;;;;;;10.05;7.78;;;;;;;20.61;71.13;96810.91;5005272;28;20046;-62
2021/07/07 01:20:42;;;;;;;7.82;6.75;;;;;;;20.76;70.46;96817.72;5005476;28;20038;-61
2021/07/07 01:23:07;;;;;;;9.43;7.15;;;;;;;20.85;69.46;96815.06;5005053;28;20032;-62
2021/07/07 01:25:33;;;;;;;12.18;7.57;;;;;;;20.51;69.86;96766.94;5003087;28;20038;-62
2021/07/07 01:28:03;;;;;;;9.15;8.23;;;;;;;20.80;69.97;96815.63;5004949;28;20072;-61
2021/07/07 01:30:29;;;;;;;8.10;6.82;;;;;;;20.73;70.53;96807.38;5003398;28;20073;-63
2021/07/07 01:32:54;;;;;;;8.50;7.43;;;;;;;20.78;70.60;96806.84;5002991;28;20068;-61
2021/07/07 01:35:21;;;;;;;9.15;8.15;;;;;;;20.17;70.46;96719.56;5003293;28;20065;-63
2021/07/07 01:37:48;;;;;;;9.73;8.30;;;;;;;20.88;69.87;96814.22;5003461;28;20033;-61
2021/07/07 01:40:18;;;;;;;7.75;6.93;;;;;;;20.95;70.00;96808.38;5005075;28;20045;-62
2021/07/07 01:42:43;;;;;;;9.07;8.18;;;;;;;20.58;70.19;96770.34;5003251;28;20038;-62
2021/07/07 01:45:10;;;;;;;8.60;7.80;;;;;;;20.74;70.62;96814.56;5003115;28;20567;-62
2021/07/07 01:47:36;;;;;;;11.73;7.85;;;;;;;20.91;70.27;96819.72;5004349;28;20122;-61
2021/07/07 01:50:03;;;;;;;8.50;7.60;;;;;;;20.78;69.56;96816.06;5005060;28;20412;-62
2021/07/07 01:52:29;;;;;;;9.10;7.43;;;;;;;20.89;69.44;96815.78;5002971;28;20424;-62
2021/07/07 01:54:55;;;;;;;10.25;7.57;;;;;;;20.88;69.17;96814.22;5003291;28;20038;-61
2021/07/07 01:57:21;;;;;;;8.82;7.93;;;;;;;21.00;68.74;96821.94;5003554;28;20140;-62
2021/07/07 01:59:46;;;;;;;9.80;8.63;;;;;;;20.83;68.68;96783.78;5003013;28;20125;-62
2021/07/07 02:02:12;;;;;;;11.85;9.00;;;;;;;21.04;69.34;96825.44;5002670;28;20034;-62
2021/07/07 02:04:37;;;;;;;9.77;8.77;;;;;;;21.19;68.88;96823.03;5004581;28;20045;-62
2021/07/07 02:07:03;;;;;;;8.55;7.72;;;;;;;20.72;69.46;96783.28;5002936;28;20030;-62
2021/07/07 02:09:28;;;;;;;11.02;8.07;;;;;;;21.06;69.42;96822.97;5004541;28;20049;-61
2021/07/07 02:11:54;;;;;;;10.85;8.38;;;;;;;21.24;68.88;96826.09;5004291;28;20057;-63
2021/07/07 02:14:20;;;;;;;8.68;7.78;;;;;;;21.18;69.05;96827.09;5004417;28;20038;-61
2021/07/07 02:16:45;;;;;;;7.93;7.25;;;;;;;21.21;69.02;96832.63;5002866;28;20034;-63
2021/07/07 02:19:12;;;;;;;11.63;7.35;;;;;;;21.00;68.52;96771.25;5003755;28;20053;-61
2021/07/07 02:21:38;;;;;;;8.90;7.63;;;;;;;21.38;68.52;96819.25;5004124;28;20038;-61
2021/07/07 02:24:03;;;;;;;9.25;7.68;;;;;;;21.50;67.95;96824.94;5002311;28;20588;-62
2021/07/07 02:26:29;;;;;;;10.90;9.20;;;;;;;21.26;67.69;96795.44;5003995;28;20037;-63
2021/07/07 02:28:54;;;;;;;14.00;8.48;;;;;;;21.12;68.20;96775.34;5004153;28;20519;-62
2021/07/07 02:31:20;;;;;;;11.45;8.48;;;;;;;21.06;68.59;96763.81;5002830;28;20106;-62
2021/07/07 02:33:45;;;;;;;9.98;8.48;;;;;;;21.42;70.53;96832.00;5003705;28;20527;-62
2021/07/07 02:36:11;;;;;;;11.05;8.43;;;;;;;21.36;71.72;96847.09;5002147;28;20022;-62
2021/07/07 02:38:37;;;;;;;11.45;9.40;;;;;;;21.17;72.49;96829.09;5004694;28;20112;-62
2021/07/07 02:41:02;;;;;;;10.02;9.05;;;;;;;21.11;73.40;96850.63;5021648;28;20557;-59
2021/07/07 02:43:28;;;;;;;10.23;8.73;;;;;;;20.73;74.09;96813.00;5022134;28;20056;-61
2021/07/07 02:45:53;;;;;;;9.88;8.93;;;;;;;20.89;74.53;96841.13;5021821;28;20071;-60
2021/07/07 02:48:19;;;;;;;14.63;9.85;;;;;;;20.58;73.87;96780.84;5021844;28;20459;-60
2021/07/07 02:50:45;;;;;;;9.82;8.70;;;;;;;20.57;73.57;96776.41;5023305;28;20556;-61
2021/07/07 02:53:12;;;;;;;11.80;9.05;;;;;;;21.06;73.62;96842.69;5026418;28;20858;-61
2021/07/07 02:55:39;;;;;;;12.23;9.20;;;;;;;21.25;72.75;96844.59;5025756;28;20045;-60
2021/07/07 02:58:05;;;;;;;10.23;9.10;;;;;;;20.86;72.95;96799.78;5027499;28;20033;-60
2021/07/07 03:00:39;;;;;;;13.55;9.43;;;;;;;21.19;73.26;96840.72;5025816;28;20059;-59
2021/07/07 03:03:07;;;;;;;10.13;9.20;;;;;;;21.09;74.15;96847.44;5027203;28;20040;-59
2021/07/07 03:05:39;;;;;;;13.68;9.70;;;;;;;21.21;73.76;96855.16;5027423;28;20045;-60
2021/07/07 03:08:05;;;;;;;16.17;9.75;;;;;;;20.88;74.00;96819.84;5025932;28;20037;-60
2021/07/07 03:10:31;;;;;;;21.83;10.95;;;;;;;21.27;73.92;96856.22;5025383;28;20042;-60
2021/07/07 03:12:57;;;;;;;18.15;10.48;;;;;;;21.36;72.95;96847.09;5027128;28;20091;-60
2021/07/07 03:15:23;;;;;;;9.60;8.60;;;;;;;21.33;72.09;96817.78;5025172;28;20566;-60
2021/07/07 03:17:49;;;;;;;9.88;8.98;;;;;;;21.63;72.16;96853.16;5025316;28;20037;-60
2021/07/07 03:20:15;;;;;;;12.05;9.25;;;;;;;21.40;72.96;96865.50;5027245;28;20052;-61
2021/07/07 03:22:41;;;;;;;14.15;9.05;;;;;;;21.28;72.65;96825.97;5025755;28;20060;-61
2021/07/07 03:25:07;;;;;;;12.93;8.45;;;;;;;21.66;70.45;96897.38;5027476;28;20037;-60
2021/07/07 03:27:33;;;;;;;13.13;8.63;;;;;;;21.77;71.13;96862.00;5027260;28;20032;-60
2021/07/07 03:29:58;;;;;;;11.55;8.80;;;;;;;21.81;71.22;96859.91;5025610;28;20485;-61
2021/07/07 03:32:24;;;;;;;11.02;9.05;;;;;;;21.94;70.36;96862.75;5026808;28;20127;-61
2021/07/07 03:34:50;;;;;;;9.90;8.90;;;;;;;22.13;70.07;96859.69;5027003;28;20124;-60
2021/07/07 03:37:15;;;;;;;13.02;8.90;;;;;;;22.10;69.67;96860.59;5026700;28;20035;-60
2021/07/07 03:39:41;;;;;;;11.60;9.50;;;;;;;22.17;68.92;96849.09;5021818;28;20117;-63
2021/07/07 03:42:06;;;;;;;9.57;8.68;;;;;;;22.37;68.38;96872.22;5007002;28;20109;-62
2021/07/07 03:44:33;;;;;;;11.18;8.73;;;;;;;21.57;71.37;96821.13;5005326;28;20104;-61
2021/07/07 03:46:58;;;;;;;13.85;9.93;;;;;;;22.24;70.63;96860.16;5002972;28;20225;-61
2021/07/07 03:49:24;;;;;;;12.85;9.27;;;;;;;21.44;72.21;96807.00;5004959;28;20041;-61
2021/07/07 03:51:49;;;;;;;11.30;9.43;;;;;;;22.15;71.09;96874.16;5006598;28;20101;-60
2021/07/07 03:54:15;;;;;;;13.05;9.43;;;;;;;22.06;71.89;96871.22;5006361;28;20611;-61
2021/07/07 03:56:40;;;;;;;14.85;10.02;;;;;;;20.63;73.84;96662.84;5004877;28;20049;-60
2021/07/07 03:59:05;;;;;;;16.83;9.65;;;;;;;22.15;73.13;96868.50;5005019;28;20049;-60
2021/07/07 04:01:31;;;;;;;11.73;8.95;;;;;;;22.20;72.67;96870.75;5004671;28;20037;-61
2021/07/07 04:03:57;;;;;;;9.68;8.77;;;;;;;21.77;72.14;96797.16;5003620;28;20041;-61
2021/07/07 04:06:22;;;;;;;11.30;9.32;;;;;;;21.75;72.20;96793.97;5005293;28;20196;-61
2021/07/07 04:08:48;;;;;;;11.98;10.40;;;;;;;22.04;74.66;96884.16;5004571;28;20522;-59
2021/07/07 04:11:13;;;;;;;16.25;10.10;;;;;;;21.86;75.05;96856.50;5004460;28;20072;-61
2021/07/07 04:13:38;;;;;;;11.45;9.20;;;;;;;22.28;73.50;96893.91;5006151;28;20173;-61
2021/07/07 04:16:04;;;;;;;11.77;9.18;;;;;;;22.41;72.91;96875.72;5005921;28;20037;-60
2021/07/07 04:18:30;;;;;;;12.70;9.48;;;;;;;22.21;73.84;96888.47;5005904;28;20496;-60
2021/07/07 04:20:55;;;;;;;10.00;8.98;;;;;;;22.31;73.02;96888.16;5006103;28;20036;-62
2021/07/07 04:23:20;;;;;;;13.85;9.93;;;;;;;22.54;72.06;96872.91;5004696;28;20504;-60
2021/07/07 04:25:46;;;;;;;11.50;10.23;;;;;;;22.79;70.58;96877.75;5006464;28;20037;-62
2021/07/07 04:28:11;;;;;;;10.40;9.07;;;;;;;23.00;70.32;96877.03;5005954;28;20129;-61
2021/07/07 04:30:37;;;;;;;11.68;9.15;;;;;;;23.20;69.71;96880.38;5006200;28;20034;-60
2021/07/07 04:33:03;;;;;;;12.80;9.73;;;;;;;23.33;68.92;96875.50;5005549;28;20401;-62
2021/07/07 04:35:29;;;;;;;12.35;9.55;;;;;;;23.22;68.85;96830.59;5005725;28;20034;-60
2021/07/07 04:37:55;;;;;;;13.73;9.85;;;;;;;23.70;67.52;96880.97;5005655;28;20157;-61
2021/07/07 04:40:22;;;;;;;11.18;8.73;;;;;;;23.39;67.83;96814.28;5006122;28;20045;-61
2021/07/07 04:42:49;;;;;;;10.18;9.23;;;;;;;23.82;68.19;96836.88;5004712;28;20198;-61
2021/07/07 04:45:15;;;;;;;10.15;9.25;;;;;;;24.32;67.85;96881.84;5004493;28;20532;-60
2021/07/07 04:47:41;;;;;;;10.32;9.32;;;;;;;24.08;65.05;96843.16;5005460;28;20030;-61
2021/07/07 04:50:12;;;;;;;9.75;8.65;;;;;;;24.60;62.07;96886.34;5003782;28;20036;-61
2021/07/07 04:52:38;;;;;;;13.25;9.77;;;;;;;24.86;60.21;96887.75;5003603;28;20037;-62
2021/07/07 04:55:09;;;;;;;9.98;9.05;;;;;;;25.04;58.33;96887.78;5003836;28;20096;-61
2021/07/07 04:57:41;;;;;;;10.02;9.13;;;;;;;25.15;59.13;96885.28;5003696;28;20399;-61
2021/07/07 05:00:14;;;;;;;13.00;10.00;;;;;;;25.40;58.35;96889.09;5003930;28;20175;-61
2021/07/07 05:02:42;;;;;;;11.40;9.93;;;;;;;25.66;57.44;96890.34;5003531;28;20197;-63
2021/07/07 05:05:09;;;;;;;10.75;9.63;;;;;;;25.73;56.69;96890.84;5005339;28;20490;-60
2021/07/07 05:07:35;;;;;;;11.40;10.35;;;;;;;25.66;56.80;96881.84;5005044;28;20029;-60
2021/07/07 05:10:02;;;;;;;15.63;10.05;;;;;;;25.39;56.90;96833.66;5003249;28;20045;-60
2021/07/07 05:12:28;;;;;;;11.63;10.45;;;;;;;25.58;55.82;96832.34;5004801;28;20069;-60
2021/07/07 05:14:53;;;;;;;10.68;9.63;;;;;;;25.85;55.79;96860.69;5002720;28;20391;-61
2021/07/07 05:17:19;;;;;;;10.52;9.60;;;;;;;26.13;55.29;96899.19;5002070;28;20505;-67
2021/07/07 05:19:46;;;;;;;11.02;9.88;;;;;;;26.04;56.43;96899.19;5021518;28;20068;-63
2021/07/07 05:22:11;;;;;;;15.80;10.00;;;;;;;25.25;57.39;96812.34;5023179;28;20045;-59
2021/07/07 05:24:37;;;;;;;12.80;10.30;;;;;;;26.07;56.76;96896.19;5010219;28;20471;-62
2021/07/07 05:27:03;;;;;;;11.70;9.90;;;;;;;26.22;56.09;96882.13;5004576;28;20026;-61
2021/07/07 05:29:29;;;;;;;12.15;10.93;;;;;;;26.14;56.16;96870.31;5004906;28;20038;-64
2021/07/07 05:31:54;;;;;;;11.93;10.77;;;;;;;25.36;58.03;96800.53;5004700;28;20043;-65
2021/07/07 05:34:20;;;;;;;14.93;11.15;;;;;;;26.19;57.03;96915.06;5003338;28;20053;-62
2021/07/07 05:36:46;;;;;;;11.43;10.30;;;;;;;26.02;57.43;96904.56;5018751;28;20060;-62
2021/07/07 05:39:12;;;;;;;12.02;10.80;;;;;;;25.83;58.92;96888.78;5018726;28;20094;-61
2021/07/07 05:41:37;;;;;;;12.07;10.95;;;;;;;25.83;57.25;96854.72;5003066;28;20499;-63
2021/07/07 05:44:03;;;;;;;11.63;10.45;;;;;;;26.42;56.18;96888.03;5004570;28;20607;-63
2021/07/07 05:46:29;;;;;;;11.88;10.40;;;;;;;26.54;53.66;96884.22;5004104;28;20037;-62
2021/07/07 05:48:54;;;;;;;11.52;10.38;;;;;;;26.32;54.01;96912.84;5004629;28;20034;-63
2021/07/07 05:51:19;;;;;;;11.27;10.18;;;;;;;26.50;53.48;96912.81;5002830;28;20041;-61
2021/07/07 05:53:45;;;;;;;12.82;11.15;;;;;;;26.63;52.96;96915.44;5002833;28;20124;-62
2021/07/07 05:56:11;;;;;;;12.20;10.98;;;;;;;26.86;53.06;96923.25;5002907;28;20064;-63
2021/07/07 05:58:36;;;;;;;12.20;11.02;;;;;;;27.08;55.12;96909.56;5002516;28;20034;-62
2021/07/07 06:01:02;;;;;;;13.55;11.98;;;;;;;27.12;56.77;96917.91;5002379;28;20037;-62
2021/07/07 06:03:28;;;;;;;11.93;10.85;;;;;;;26.76;56.51;96862.03;5011202;28;20022;-63
2021/07/07 06:05:53;;;;;;;13.00;11.57;;;;;;;26.87;55.50;96841.59;5021891;28;20037;-63
2021/07/07 06:08:18;;;;;;;12.68;11.40;;;;;;;27.50;54.96;96907.41;5022283;28;20426;-62
2021/07/07 06:10:46;;;;;;;12.00;10.80;;;;;;;27.31;54.40;96863.31;5015440;28;20123;-64
2021/07/07 06:13:12;;;;;;;15.95;11.73;;;;;;;27.34;54.17;96850.94;5011317;28;20033;-69
2021/07/07 06:15:38;;;;;;;22.10;19.05;;;;;;;28.20;52.55;96913.47;5022568;28;20057;-65
2021/07/07 06:18:05;;;;;;;13.43;12.23;;;;;;;28.34;51.88;96927.72;5012177;28;20025;-66
2021/07/07 06:20:31;;;;;;;15.73;13.98;;;;;;;28.30;52.07;96877.88;5021161;28;20595;-65
2021/07/07 06:22:56;;;;;;;18.02;15.18;;;;;;;28.86;51.44;96904.03;5006218;28;20096;-62
2021/07/07 06:25:21;;;;;;;11.65;10.63;;;;;;;28.28;51.74;96804.28;5011969;28;20060;-67
2021/07/07 06:27:47;;;;;;;12.38;11.13;;;;;;;28.64;52.04;96911.44;5020047;28;20160;-64
2021/07/07 06:30:16;;;;;;;12.70;11.38;;;;;;;28.45;51.47;96927.13;5010758;28;20081;-67
2021/07/07 06:32:44;;;;;;;10.98;10.15;;;;;;;27.91;53.34;96899.97;5016871;28;20034;-67
2021/07/07 06:35:10;;;;;;;11.18;10.23;;;;;;;27.71;53.38;96815.19;5008450;28;20092;-63
2021/07/07 06:37:37;;;;;;;11.00;10.10;;;;;;;28.01;54.25;96882.31;5004131;28;20572;-64
2021/07/07 06:40:04;;;;;;;10.45;9.55;;;;;;;28.48;52.95;96914.78;5003601;28;20045;-64
2021/07/07 06:42:30;;;;;;;11.10;10.10;;;;;;;28.08;52.94;96893.31;5003333;28;20105;-63
2021/07/07 06:44:56;;;;;;;11.77;10.57;;;;;;;28.09;55.32;96929.06;5001914;28;20602;-63
2021/07/07 06:47:22;;;;;;;10.98;10.07;;;;;;;28.14;54.33;96919.84;5001564;28;20037;-63
2021/07/07 06:49:47;;;;;;;10.68;9.65;;;;;;;28.32;53.66;96918.09;5001879;28;20034;-62
2021/07/07 06:52:13;;;;;;;10.65;9.70;;;;;;;27.99;52.83;96839.31;5001432;28;20457;-63
2021/07/07 06:54:41;;;;;;;11.68;10.50;;;;;;;28.39;52.25;96900.59;5003322;28;20136;-63
2021/07/07 06:57:06;;;;;;;10.70;9.90;;;;;;;28.33;53.87;96923.28;5003254;28;20137;-64
2021/07/07 06:59:32;;;;;;;10.23;9.43;;;;;;;27.75;53.53;96886.16;5008049;28;20540;-63
2021/07/07 07:01:57;;;;;;;9.07;8.38;;;;;;;27.85;53.42;96921.84;5015871;28;20052;-66
2021/07/07 07:04:22;;;;;;;14.52;10.40;;;;;;;27.75;54.66;96921.13;5003200;28;20345;-63
2021/07/07 07:06:48;;;;;;;10.43;9.52;;;;;;;27.91;54.14;96923.56;5003283;28;20448;-64
2021/07/07 07:09:14;;;;;;;12.43;9.90;;;;;;;28.31;53.25;96925.06;5003245;28;20044;-59
2021/07/07 07:11:40;;;;;;;10.52;9.73;;;;;;;28.17;53.49;96924.56;5004215;28;20044;-65
2021/07/07 07:14:07;;;;;;;9.40;8.60;;;;;;;28.21;52.69;96929.28;5011755;28;20097;-66
2021/07/07 07:16:33;;;;;;;10.05;9.10;;;;;;;27.99;53.10;96907.66;5002794;28;20109;-60
2021/07/07 07:18:59;;;;;;;10.32;9.38;;;;;;;28.23;52.09;96903.94;5001002;28;20191;-65
2021/07/07 07:21:24;;;;;;;10.65;9.32;;;;;;;28.62;52.51;96936.78;5003192;28;20404;-65
2021/07/07 07:23:50;;;;;;;10.48;9.48;;;;;;;28.54;52.58;96884.28;5008009;28;20077;-63
2021/07/07 07:26:15;;;;;;;10.32;9.32;;;;;;;28.79;52.39;96935.00;5011613;28;20428;-63
2021/07/07 07:28:42;;;;;;;10.88;9.98;;;;;;;28.89;52.24;96939.31;5007166;28;20133;-61
2021/07/07 07:31:07;;;;;;;9.95;9.15;;;;;;;28.61;51.79;96938.06;5007728;28;20075;-62
2021/07/07 07:33:33;;;;;;;10.38;9.48;;;;;;;28.58;52.32;96902.75;5016307;28;20037;-65
2021/07/07 07:35:58;;;;;;;10.75;9.85;;;;;;;28.47;53.47;96947.38;5002828;28;20038;-63
2021/07/07 07:38:32;;;;;;;11.23;10.07;;;;;;;28.46;53.78;96908.75;5005636;28;20544;-67
2021/07/07 07:40:58;;;;;;;13.20;9.93;;;;;;;27.88;53.67;96873.25;5016580;28;20033;-65
2021/07/07 07:43:24;;;;;;;11.98;10.75;;;;;;;28.38;53.43;96962.50;5005240;28;20026;-62
2021/07/07 07:45:52;;;;;;;12.65;11.13;;;;;;;28.54;53.40;96947.81;5020781;28;20107;-64
2021/07/07 07:48:18;;;;;;;11.30;9.98;;;;;;;28.24;54.00;96917.69;5010299;28;20025;-64
2021/07/07 07:50:45;;;;;;;13.63;9.63;;;;;;;28.62;53.76;96942.50;5014280;28;20045;-62
2021/07/07 07:53:10;;;;;;;10.32;9.52;;;;;;;28.24;52.40;96866.41;5008529;28;20054;-67
2021/07/07 07:55:36;;;;;;;12.68;9.80;;;;;;;29.11;51.99;96971.06;5019962;28;20496;-63
2021/07/07 07:58:03;;;;;;;11.55;10.57;;;;;;;28.32;52.37;96846.84;5014671;28;20042;-59
2021/07/07 08:00:28;;;;;;;11.60;10.40;;;;;;;28.63;52.08;96904.16;5006836;28;20025;-66
2021/07/07 08:02:55;;;;;;;10.68;9.60;;;;;;;28.75;52.00;96934.41;5013108;28;20541;-63
2021/07/07 08:05:20;;;;;;;15.88;11.65;;;;;;;29.13;51.45;96965.66;5018961;28;20041;-61
2021/07/07 08:07:46;;;;;;;14.25;10.93;;;;;;;28.42;52.87;96922.41;5014011;28;20500;-65
2021/07/07 08:10:16;;;;;;;13.20;11.88;;;;;;;28.97;52.68;96969.00;5012770;28;20077;-65
2021/07/07 08:12:42;;;;;;;30.15;17.83;;;;;;;28.96;51.59;96964.59;5019612;28;20566;-63
2021/07/07 08:15:09;;;;;;;15.50;12.13;;;;;;;29.12;52.16;96966.94;5007422;28;20500;-65
2021/07/07 08:17:35;;;;;;;23.88;15.00;;;;;;;29.39;49.93;96960.84;5007173;28;20033;-63
2021/07/07 08:20:00;;;;;;;19.13;14.23;;;;;;;29.60;50.63;96959.59;5006862;28;20050;-61
2021/07/07 08:22:26;;;;;;;22.42;14.80;;;;;;;29.92;49.94;96958.50;5006940;28;20038;-64
2021/07/07 08:24:52;;;;;;;14.45;12.68;;;;;;;30.14;48.48;96958.75;5005791;28;20528;-64
2021/07/07 08:27:19;;;;;;;18.75;16.75;;;;;;;30.12;48.00;96961.31;5005690;28;20061;-63
2021/07/07 08:29:44;;;;;;;10.75;9.85;;;;;;;29.92;47.59;96967.06;5009066;28;20477;-63
2021/07/07 08:32:10;;;;;;;9.93;9.13;;;;;;;29.66;47.92;96974.75;5006694;28;20463;-66
2021/07/07 08:34:36;;;;;;;11.05;9.73;;;;;;;29.62;48.29;96950.53;5009135;28;20113;-63
2021/07/07 08:37:02;;;;;;;13.18;10.00;;;;;;;29.84;47.06;96954.50;5011514;28;20048;-63
2021/07/07 08:39:29;;;;;;;11.77;10.02;;;;;;;29.48;48.08;96927.25;5014387;28;20115;-61
2021/07/07 08:41:55;;;;;;;10.60;9.70;;;;;;;29.84;46.83;96974.50;5014024;28;20045;-63
2021/07/07 08:44:21;;;;;;;9.65;8.82;;;;;;;29.77;46.45;96969.19;5019980;28;20523;-61
2021/07/07 08:46:48;;;;;;;9.68;8.98;;;;;;;29.87;47.06;96972.69;5017347;28;20052;-62
2021/07/07 08:49:14;;;;;;;10.10;9.27;;;;;;;29.98;45.20;96962.19;5004071;28;20489;-62
2021/07/07 08:51:42;;;;;;;11.23;8.75;;;;;;;29.59;44.76;96980.88;5008275;28;21368;-61
2021/07/07 08:54:09;;;;;;;15.45;12.38;;;;;;;27.87;44.63;96700.81;5023738;28;20033;-62
2021/07/07 08:56:40;;;;;;;19.27;14.52;;;;;;;29.85;45.50;96980.97;5009721;28;20116;-60
2021/07/07 08:59:05;;;;;;;13.77;12.52;;;;;;;30.01;44.94;96989.78;5003643;28;20037;-64
2021/07/07 09:01:31;;;;;;;12.40;10.57;;;;;;;29.86;43.02;96989.03;5005017;28;20038;-61
2021/07/07 09:03:56;;;;;;;10.50;9.48;;;;;;;30.21;42.95;96992.63;5023678;28;20038;-65
2021/07/07 09:06:22;;;;;;;9.05;8.25;;;;;;;30.50;42.61;97008.81;5024565;28;20132;-62
2021/07/07 09:08:49;;;;;;;8.63;7.85;;;;;;;30.77;42.39;97017.72;5022761;28;20056;-63
2021/07/07 09:11:24;;;;;;;9.45;8.60;;;;;;;31.03;40.92;97011.19;5011174;28;20026;-62
2021/07/07 09:14:07;;;;;;;10.50;9.10;;;;;;;31.05;41.76;96988.56;5022540;28;20420;-62
2021/07/07 09:16:48;;;;;;;11.27;9.45;;;;;;;30.24;40.92;96940.16;5013600;28;20113;-60
2021/07/07 09:19:17;;;;;;;11.15;10.00;;;;;;;29.94;43.68;97000.84;5004468;28;20066;-62
2021/07/07 09:22:05;;;;;;;10.98;9.88;;;;;;;29.97;43.31;96949.19;5006905;28;20805;-62
2021/07/07 09:24:30;;;;;;;7.75;7.25;;;;;;;30.36;42.25;97004.78;5011979;28;20152;-63
2021/07/07 09:27:15;;;;;;;11.48;9.70;;;;;;;30.07;44.28;96996.34;5005681;28;20501;-62
2021/07/07 09:29:53;;;;;;;9.85;8.85;;;;;;;29.97;45.18;97005.56;5005911;28;20306;-62
2021/07/07 09:32:28;;;;;;;10.40;9.35;;;;;;;30.44;43.27;97003.03;5008077;28;20038;-63
2021/07/07 09:34:59;;;;;;;9.70;8.80;;;;;;;30.58;43.64;97005.00;5012462;28;20037;-64
2021/07/07 09:37:25;;;;;;;9.73;8.75;;;;;;;30.46;42.53;97009.03;5019159;28;20033;-61
2021/07/07 09:39:52;;;;;;;9.40;8.50;;;;;;;30.41;41.88;97004.06;5006498;28;20239;-59
2021/07/07 09:42:29;;;;;;;9.15;8.45;;;;;;;30.63;42.90;96998.56;5013479;28;20026;-62
2021/07/07 09:44:57;;;;;;;8.48;7.93;;;;;;;30.10;43.97;96975.31;5002809;28;20096;-61
2021/07/07 09:47:23;;;;;;;16.52;14.88;;;;;;;30.31;43.73;96991.19;5004708;28;20057;-62
2021/07/07 09:49:49;;;;;;;10.68;9.70;;;;;;;30.35;43.25;97000.31;5016673;28;20041;-60
2021/07/07 09:52:20;;;;;;;13.20;11.82;;;;;;;30.33;45.51;97010.69;5014139;28;20140;-61
2021/07/07 09:54:46;;;;;;;13.55;12.02;;;;;;;30.36;45.15;96981.09;5011341;28;20033;-64
2021/07/07 09:57:13;;;;;;;10.05;9.13;;;;;;;30.25;45.64;96998.94;5004292;28;20034;-66
2021/07/07 09:59:39;;;;;;;11.05;10.05;;;;;;;30.18;44.05;96992.81;5004398;28;20496;-66
2021/07/07 10:02:05;;;;;;;14.70;12.38;;;;;;;30.03;44.99;96950.06;5005436;28;20036;-64
2021/07/07 10:04:34;;;;;;;12.75;11.55;;;;;;;30.21;45.65;96991.88;5023271;28;20041;-65
2021/07/07 10:07:00;;;;;;;9.93;9.02;;;;;;;30.02;44.52;96997.03;5023339;28;20029;-63
2021/07/07 10:09:26;;;;;;;11.48;10.43;;;;;;;29.87;44.42;96939.22;5022130;28;20534;-64
2021/07/07 10:11:54;;;;;;;10.45;9.35;;;;;;;30.36;44.46;96943.94;5013438;28;20033;-61
2021/07/07 10:14:21;;;;;;;9.02;8.25;;;;;;;30.85;42.58;96984.50;5012799;28;20041;-60
2021/07/07 10:16:48;;;;;;;9.38;8.57;;;;;;;30.29;43.77;96996.63;5013538;28;20033;-66
2021/07/07 10:19:14;;;;;;;12.30;11.13;;;;;;;30.51;45.20;96982.56;5004231;28;20107;-65
2021/07/07 10:21:39;;;;;;;8.93;8.32;;;;;;;30.27;45.82;96989.84;5003087;28;20038;-61
2021/07/07 10:24:07;;;;;;;9.60;8.60;;;;;;;30.12;45.34;96947.03;5013744;28;20034;-61
2021/07/07 10:26:33;;;;;;;9.73;8.93;;;;;;;30.32;44.58;96992.75;5002680;28;20433;-63
2021/07/07 10:28:59;;;;;;;9.50;8.65;;;;;;;30.17;44.63;96974.91;5004106;28;20088;-66
2021/07/07 10:31:52;;;;;;;9.43;8.40;;;;;;;30.10;46.43;96992.47;5004474;28;20026;-64
2021/07/07 10:34:20;;;;;;;9.20;8.43;;;;;;;29.85;47.40;96993.19;5004364;28;20552;-66
2021/07/07 10:36:46;;;;;;;10.23;9.43;;;;;;;29.80;46.71;96979.63;5006419;28;20120;-62
2021/07/07 10:39:14;;;;;;;9.38;8.68;;;;;;;30.06;45.60;97002.56;5009785;28;20124;-69
2021/07/07 10:41:50;;;;;;;12.35;10.38;;;;;;;29.89;44.70;97002.34;5018259;28;20492;-62
2021/07/07 10:44:21;;;;;;;9.70;9.02;;;;;;;30.62;44.26;96999.84;5020330;28;20044;-67
2021/07/07 10:47:00;;;;;;;10.32;8.70;;;;;;;31.08;43.89;96993.28;5013953;28;20037;-62
2021/07/07 10:49:28;;;;;;;10.50;9.63;;;;;;;30.69;44.61;96996.53;5013841;28;20116;-65
2021/07/07 10:51:56;;;;;;;12.40;10.82;;;;;;;31.43;43.99;97005.25;5012941;28;20041;-63
2021/07/07 10:54:27;;;;;;;12.80;11.05;;;;;;;31.66;42.88;97001.25;5011155;28;20566;-70
2021/07/07 10:56:54;;;;;;;13.18;11.93;;;;;;;31.78;42.03;96954.16;5006377;28;20107;-68
2021/07/07 10:59:45;;;;;;;24.92;18.38;;;;;;;32.28;42.21;96995.31;5007600;28;20622;-67
2021/07/07 11:02:20;;;;;;;9.98;9.18;;;;;;;32.19;41.18;97001.28;5015738;28;20041;-76
2021/07/07 11:04:49;;;;;;;10.38;9.57;;;;;;;31.54;42.43;96936.59;5013270;28;20144;-62
2021/07/07 11:07:27;;;;;;;13.10;10.00;;;;;;;31.73;42.38;96995.03;5008398;28;20041;-63
2021/07/07 11:10:14;;;;;;;10.93;10.00;;;;;;;32.13;42.21;97000.47;5017702;28;20476;-58
2021/07/07 11:12:39;;;;;;;9.80;9.00;;;;;;;31.06;44.48;97004.44;5011153;28;20124;-60
2021/07/07 11:15:07;;;;;;;11.40;9.57;;;;;;;31.05;43.47;97002.88;5016869;28;20048;-66
2021/07/07 11:17:37;;;;;;;10.18;9.38;;;;;;;31.24;43.49;97015.50;5018165;28;20067;-64
2021/07/07 11:20:12;;;;;;;11.07;10.10;;;;;;;31.28;43.51;96999.69;5018528;28;20049;-62
2021/07/07 11:22:41;;;;;;;10.77;9.77;;;;;;;31.13;44.57;97001.09;5013088;28;20096;-61